Nyk Constellation — V7NP4 — position and weather

sailwx.info

Track history (hours):
 
Tides and Currents Weather Stations Pressure Air Temp Water Temp Dewpoint Dewpoint Depression Visibility Wind Speed Wind Dir Waves Ship Positions

Nyk Constellation

Last reported at 2016-Jul-25 11:28 UTC. Time now 2016-Jul-25 11:53 UTC.
Position N 36°56' W 076°20'.

Length 294 m; draft 11.7 m.

Type: Cargo ship. MMSI: 538002992.

Date/timePositionNaut miles runAvg speedWind from/ knotsBaromVisibWave heightAir tempDewpointWater temp
2016-Jul-25 11:28N 36°56' W 076°20'0 0.0
2016-Jul-25 10:28N 36°56' W 076°20'0 0.2
2016-Jul-25 09:33N 36°56' W 076°20'8 6.3
2016-Jul-25 08:17N 36°60' W 076°11'1013.7
2016-Jul-25 07:33N 36°57' W 075°59'8 8.5
2016-Jul-25 06:33N 36°52' W 075°51'11 9.9
2016-Jul-25 05:28N 36°50' W 075°37'2010.2
2016-Jul-25 03:33N 37°00' W 075°16'1110.9
2016-Jul-25 02:33N 37°09' W 075°09'1211.0
2016-Jul-25 01:29N 37°19' W 075°00'1010.6
2016-Jul-25 00:33N 37°27' W 074°53'1110.9
2016-Jul-24 23:33N 37°36' W 074°45'1311.6
2016-Jul-24 22:24N 37°47' W 074°35'1012.1
2016-Jul-24 21:34N 37°55' W 074°28'1111.3
2016-Jul-24 20:34N 38°06' W 074°24'1111.4
2016-Jul-24 19:33N 38°17' W 074°20'1615.9
2016-Jul-24 18:33N 38°32' W 074°15'3316.3
2016-Jul-24 16:33N 39°04' W 074°04'1716.1
2016-Jul-24 15:28N 39°21' W 073°58'1516.5
2016-Jul-24 14:34N 39°35' W 073°53'1716.6
2016-Jul-24 13:33N 39°52' W 073°51'1816.7
2016-Jul-24 12:27N 40°10' W 073°50'1615.2
2016-Jul-24 11:25N 40°26' W 073°49'1011.2
2016-Jul-24 10:33N 40°31' W 073°59'9 9.1
2016-Jul-24 09:33N 40°39' W 074°06'4 4.3
2016-Jul-24 08:33N 40°39' W 074°11'0 0.1
2016-Jul-24 07:32N 40°39' W 074°11'0 0.0
2016-Jul-24 06:32N 40°39' W 074°11'0 0.0
2016-Jul-24 05:32N 40°39' W 074°11'0 0.0
2016-Jul-24 04:32N 40°39' W 074°11'0 0.0
2016-Jul-24 03:32N 40°39' W 074°11'0 0.0
2016-Jul-24 02:32N 40°39' W 074°11'0 0.0
2016-Jul-24 01:32N 40°39' W 074°11'0 0.0
2016-Jul-24 00:29N 40°39' W 074°11'0 0.0
2016-Jul-23 23:32N 40°39' W 074°11'0 0.0
2016-Jul-23 22:29N 40°39' W 074°11'0 0.0
2016-Jul-23 21:33N 40°39' W 074°11'5 4.9
2016-Jul-23 20:33N 40°39' W 074°05'9 9.5
2016-Jul-23 19:33N 40°31' W 073°59'1010.3
2016-Jul-23 18:34N 40°27' W 073°46'7912.6
2016-Jul-23 12:18N 40°31' W 072°03'44912.9
2016-Jul-22 01:33N 44°38' W 063°33'3 0.3
2016-Jul-21 15:03N 44°40' W 063°36'3 6.6
2016-Jul-21 14:33N 44°38' W 063°33'  
Track history (hours):
 
Tides and Currents Weather Stations Pressure Air Temp Water Temp Dewpoint Dewpoint Depression Visibility Wind Speed Wind Dir Waves Ship Positions

Nyk Constellation

Last reported at 2016-Jul-25 11:28 UTC. Time now 2016-Jul-25 11:53 UTC.
Position N 36°56' W 076°20'.

Length 294 m; draft 11.7 m.

Type: Cargo ship. MMSI: 538002992.

Date/timePositionNaut miles runAvg speedWind from/ knotsBaromVisibWave heightAir tempDewpointWater temp
2016-Jul-25 11:28N 36°56' W 076°20'0 0.0
2016-Jul-25 10:28N 36°56' W 076°20'0 0.2
2016-Jul-25 09:33N 36°56' W 076°20'8 6.3
2016-Jul-25 08:17N 36°60' W 076°11'1013.7
2016-Jul-25 07:33N 36°57' W 075°59'8 8.5
2016-Jul-25 06:33N 36°52' W 075°51'11 9.9
2016-Jul-25 05:28N 36°50' W 075°37'2010.2
2016-Jul-25 03:33N 37°00' W 075°16'1110.9
2016-Jul-25 02:33N 37°09' W 075°09'1211.0
2016-Jul-25 01:29N 37°19' W 075°00'1010.6
2016-Jul-25 00:33N 37°27' W 074°53'1110.9
2016-Jul-24 23:33N 37°36' W 074°45'1311.6
2016-Jul-24 22:24N 37°47' W 074°35'1012.1
2016-Jul-24 21:34N 37°55' W 074°28'1111.3
2016-Jul-24 20:34N 38°06' W 074°24'1111.4
2016-Jul-24 19:33N 38°17' W 074°20'1615.9
2016-Jul-24 18:33N 38°32' W 074°15'3316.3
2016-Jul-24 16:33N 39°04' W 074°04'1716.1
2016-Jul-24 15:28N 39°21' W 073°58'1516.5
2016-Jul-24 14:34N 39°35' W 073°53'1716.6
2016-Jul-24 13:33N 39°52' W 073°51'1816.7
2016-Jul-24 12:27N 40°10' W 073°50'1615.2
2016-Jul-24 11:25N 40°26' W 073°49'1011.2
2016-Jul-24 10:33N 40°31' W 073°59'9 9.1
2016-Jul-24 09:33N 40°39' W 074°06'4 4.3
2016-Jul-24 08:33N 40°39' W 074°11'0 0.1
2016-Jul-24 07:32N 40°39' W 074°11'0 0.0
2016-Jul-24 06:32N 40°39' W 074°11'0 0.0
2016-Jul-24 05:32N 40°39' W 074°11'0 0.0
2016-Jul-24 04:32N 40°39' W 074°11'0 0.0
2016-Jul-24 03:32N 40°39' W 074°11'0 0.0
2016-Jul-24 02:32N 40°39' W 074°11'0 0.0
2016-Jul-24 01:32N 40°39' W 074°11'0 0.0
2016-Jul-24 00:29N 40°39' W 074°11'0 0.0
2016-Jul-23 23:32N 40°39' W 074°11'0 0.0
2016-Jul-23 22:29N 40°39' W 074°11'0 0.0
2016-Jul-23 21:33N 40°39' W 074°11'5 4.9
2016-Jul-23 20:33N 40°39' W 074°05'9 9.5
2016-Jul-23 19:33N 40°31' W 073°59'1010.3
2016-Jul-23 18:34N 40°27' W 073°46'7912.6
2016-Jul-23 12:18N 40°31' W 072°03'44912.9
2016-Jul-22 01:33N 44°38' W 063°33'3 0.3
2016-Jul-21 15:03N 44°40' W 063°36'3 6.6
2016-Jul-21 14:33N 44°38' W 063°33'  

Dump ship's entire track history